Time;durP1;ratioP1;P1;durP2;ratioP2;P2;SDS_P1;SDS_P2;PMS_P1;PMS_P2;Temp;Humidity;BMP_temperature;BMP_pressure;BME280_temperature;BME280_humidity;BME280_pressure;Samples;Min_cycle;Max_cycle;Signal;HPM_P1;HPM_P2
2023/10/24 00:01:11;;;;;;;0.17;0.17;;;;;;;9.92;81.84;100648.41;15714843;28;20052;-49
2023/10/24 00:08:46;;;;;;;3.50;0.65;;;;;;;9.73;82.31;100633.16;15701582;28;20055;-46
2023/10/24 00:16:24;;;;;;;0.50;0.50;;;;;;;9.60;83.86;100617.91;15690564;28;20036;-45
2023/10/24 00:24:00;;;;;;;0.20;0.20;;;;;;;9.65;83.63;100612.78;15710466;28;20048;-47
2023/10/24 00:31:35;;;;;;;0.20;0.20;;;;;;;9.48;84.52;100590.13;15708378;28;20493;-51
2023/10/24 00:39:10;;;;;;;1.02;0.85;;;;;;;9.67;84.20;100577.72;15698210;28;20056;-46
2023/10/24 00:46:45;;;;;;;0.15;0.15;;;;;;;9.60;84.53;100564.31;15686417;28;20032;-49
2023/10/24 00:54:19;;;;;;;0.35;0.35;;;;;;;9.99;83.94;100553.75;15689338;28;20147;-47
2023/10/24 01:01:54;;;;;;;;;;;;;;;9.89;84.18;100540.78;15669323;28;20049;-47
2023/10/24 01:09:27;;;;;;;0.50;0.50;;;;;;;10.08;83.37;100539.06;15693827;28;20280;-44
2023/10/24 01:17:10;;;;;;;0.00;0.00;;;;;;;10.06;83.87;100527.72;15691055;28;20459;-49
2023/10/24 01:24:47;;;;;;;0.00;0.00;;;;;;;10.25;82.93;100536.75;15701978;28;20041;-48
2023/10/24 01:32:30;;;;;;;0.00;0.00;;;;;;;10.20;83.55;100511.34;15693442;28;20087;-45
2023/10/24 01:40:05;;;;;;;1.00;0.60;;;;;;;10.59;81.30;100519.47;15698129;28;20035;-48
2023/10/24 01:47:38;;;;;;;0.38;0.38;;;;;;;10.38;81.98;100497.28;15682393;28;20051;-47
2023/10/24 01:55:14;;;;;;;1.20;0.45;;;;;;;10.79;80.88;100511.28;15703547;28;20032;-48
2023/10/24 02:02:49;;;;;;;0.13;0.13;;;;;;;10.77;81.18;100502.59;15681591;28;20103;-50
2023/10/24 02:10:23;;;;;;;0.38;0.38;;;;;;;11.10;79.58;100505.06;15680485;28;20117;-47
2023/10/24 02:17:56;;;;;;;0.50;0.50;;;;;;;10.98;80.48;100496.88;15686178;28;20033;-47
2023/10/24 02:25:36;;;;;;;1.70;1.17;;;;;;;11.10;79.40;100497.81;15674168;28;20039;-49
2023/10/24 02:33:12;;;;;;;0.65;0.52;;;;;;;11.31;78.98;100495.78;15680414;28;20437;-45
2023/10/24 02:40:53;;;;;;;1.60;1.13;;;;;;;11.09;79.77;100493.47;15679162;28;20418;-45
2023/10/24 02:48:26;;;;;;;1.00;0.80;;;;;;;11.71;77.58;100502.41;15682705;28;20036;-45
2023/10/24 02:56:03;;;;;;;0.30;0.30;;;;;;;11.06;80.08;100493.94;15678413;28;20029;-49
2023/10/24 03:03:36;;;;;;;0.30;0.30;;;;;;;10.97;80.71;100489.88;15704216;28;20037;-50
2023/10/24 03:11:11;;;;;;;1.38;0.45;;;;;;;11.40;78.66;100489.88;15678148;28;20149;-48
2023/10/24 03:18:45;;;;;;;0.88;0.80;;;;;;;11.01;80.18;100458.84;15674494;28;20041;-50
2023/10/24 03:26:20;;;;;;;0.68;0.63;;;;;;;10.84;81.13;100455.06;15690786;28;20053;-48
2023/10/24 03:33:55;;;;;;;0.40;0.40;;;;;;;11.04;80.76;100454.88;15675557;28;20048;-51
2023/10/24 03:41:29;;;;;;;0.43;0.43;;;;;;;10.88;80.92;100456.28;15679155;28;20107;-47
2023/10/24 03:49:02;;;;;;;2.17;0.60;;;;;;;11.10;80.38;100433.34;15677296;28;20662;-48
2023/10/24 03:56:37;;;;;;;0.60;0.60;;;;;;;10.71;81.94;100421.91;15702513;28;20398;-45
2023/10/24 04:04:10;;;;;;;0.32;0.17;;;;;;;10.68;83.11;100405.44;15694273;28;20124;-49
2023/10/24 04:11:45;;;;;;;0.55;0.55;;;;;;;10.47;83.98;100402.06;15691077;28;20040;-46
2023/10/24 04:19:18;;;;;;;0.40;0.40;;;;;;;10.67;82.97;100387.66;15704772;28;20063;-50
2023/10/24 04:26:53;;;;;;;0.65;0.45;;;;;;;10.84;82.28;100383.38;15691779;28;20048;-50
2023/10/24 04:34:26;;;;;;;0.10;0.10;;;;;;;10.87;81.77;100385.66;15691586;28;20549;-46
2023/10/24 04:42:00;;;;;;;0.60;0.60;;;;;;;10.84;81.66;100404.06;15712566;28;20053;-45
2023/10/24 04:49:37;;;;;;;0.95;0.90;;;;;;;10.88;81.29;100406.06;15709706;28;20037;-49
2023/10/24 04:57:12;;;;;;;0.03;0.03;;;;;;;11.02;80.84;100384.47;15695227;28;20443;-49
2023/10/24 05:04:45;;;;;;;0.22;0.22;;;;;;;11.02;80.99;100371.88;15708690;28;20040;-44
2023/10/24 05:12:19;;;;;;;;;;;;;;;10.77;82.48;100373.75;15699544;28;20049;-50
2023/10/24 05:19:53;;;;;;;0.77;0.75;;;;;;;10.43;83.47;100339.13;15683351;28;19924;-53
2023/10/24 05:27:28;;;;;;;0.07;0.07;;;;;;;10.66;83.35;100332.34;15702239;28;20047;-47
2023/10/24 05:35:01;;;;;;;0.80;0.55;;;;;;;11.03;81.30;100354.69;15693111;28;20308;-45
2023/10/24 05:42:38;;;;;;;1.02;0.60;;;;;;;10.68;82.06;100349.88;15709114;28;20041;-49
2023/10/24 05:50:12;;;;;;;0.65;0.65;;;;;;;10.47;82.89;100334.16;15700659;28;20064;-53
2023/10/24 05:57:47;;;;;;;0.22;0.22;;;;;;;10.39;83.41;100305.72;15703791;28;20484;-44
2023/10/24 06:05:21;;;;;;;1.20;1.10;;;;;;;10.85;82.70;100300.97;15693523;28;20044;-48
2023/10/24 06:12:57;;;;;;;2.15;2.03;;;;;;;10.38;84.79;100274.59;15700164;28;20037;-46
2023/10/24 06:20:30;;;;;;;0.20;0.20;;;;;;;10.62;82.66;100258.66;15693031;28;20057;-45
2023/10/24 06:28:04;;;;;;;0.17;0.17;;;;;;;10.56;82.75;100256.88;15678161;28;20061;-45
2023/10/24 06:35:41;;;;;;;0.38;0.25;;;;;;;10.91;81.44;100251.75;15701527;28;20032;-51
2023/10/24 06:43:15;;;;;;;5.03;0.68;;;;;;;10.83;81.72;100252.06;15712829;28;20470;-52
2023/10/24 06:50:48;;;;;;;0.00;0.00;;;;;;;10.95;80.93;100267.19;15719555;28;20382;-50
2023/10/24 06:58:23;;;;;;;0.57;0.57;;;;;;;11.26;80.31;100264.56;15712019;28;20052;-55
2023/10/24 07:05:56;;;;;;;0.55;0.55;;;;;;;10.96;81.25;100268.03;15723938;28;20406;-50
2023/10/24 07:13:31;;;;;;;1.83;1.70;;;;;;;11.43;79.20;100274.47;15714543;28;20500;-49
2023/10/24 07:21:04;;;;;;;1.13;1.02;;;;;;;10.90;82.27;100250.94;15692367;28;20458;-48
2023/10/24 07:28:38;;;;;;;1.30;0.80;;;;;;;11.16;80.42;100239.06;15709160;28;20044;-52
2023/10/24 07:36:11;;;;;;;0.52;0.45;;;;;;;11.38;80.11;100257.38;15679767;28;20049;-50
2023/10/24 07:43:47;;;;;;;1.45;1.17;;;;;;;11.56;78.98;100238.50;15704956;28;20049;-52
2023/10/24 07:51:20;;;;;;;1.65;1.13;;;;;;;11.70;78.10;100247.19;15703964;28;20127;-49
2023/10/24 07:58:55;;;;;;;1.08;1.00;;;;;;;11.88;77.92;100244.47;15693995;28;20120;-47
2023/10/24 08:06:28;;;;;;;0.22;0.22;;;;;;;11.40;79.53;100234.59;15709598;28;20064;-49
2023/10/24 08:14:04;;;;;;;1.85;0.88;;;;;;;11.62;79.23;100213.41;15712792;28;20079;-49
2023/10/24 08:21:37;;;;;;;3.95;1.08;;;;;;;11.42;80.67;100200.28;15731130;28;20044;-49
2023/10/24 08:29:11;;;;;;;0.15;0.15;;;;;;;11.89;78.57;100204.94;15702309;28;20037;-50
2023/10/24 08:36:45;;;;;;;2.67;0.85;;;;;;;11.66;79.87;100209.22;15704331;28;20507;-51
2023/10/24 08:44:22;;;;;;;1.48;1.02;;;;;;;11.84;78.77;100188.69;15714339;28;20045;-52
2023/10/24 08:51:56;;;;;;;1.05;0.95;;;;;;;12.20;77.15;100198.41;15734762;28;20136;-47
2023/10/24 08:59:35;;;;;;;1.45;1.08;;;;;;;12.11;78.52;100207.88;15736496;28;20114;-52
2023/10/24 09:07:08;;;;;;;0.75;0.52;;;;;;;11.98;78.04;100192.78;15725649;28;20136;-48
2023/10/24 09:14:46;;;;;;;1.17;1.08;;;;;;;11.93;79.29;100182.72;15733529;28;20064;-53
2023/10/24 09:22:19;;;;;;;0.30;0.30;;;;;;;12.45;76.65;100182.84;15717987;28;20095;-51
2023/10/24 09:29:55;;;;;;;0.82;0.82;;;;;;;12.24;76.98;100176.19;15711820;28;20052;-53
2023/10/24 09:37:28;;;;;;;0.40;0.40;;;;;;;12.56;75.71;100191.97;15717236;28;20068;-51
2023/10/24 09:45:05;;;;;;;;;;;;;;;12.64;75.27;100163.88;15692446;28;20131;-49
2023/10/24 09:52:39;;;;;;;0.40;0.40;;;;;;;12.57;75.40;100155.91;15706556;28;19972;-52
2023/10/24 10:00:16;;;;;;;0.63;0.63;;;;;;;12.13;77.06;100158.19;15709834;28;20045;-53
2023/10/24 10:07:52;;;;;;;0.57;0.32;;;;;;;12.45;76.19;100144.31;15700647;28;20036;-47
2023/10/24 10:15:54;;;;;;;1.35;1.15;;;;;;;12.58;76.08;100151.34;15683661;28;20044;-49
2023/10/24 10:23:54;;;;;;;1.17;0.90;;;;;;;12.20;77.39;100140.03;15708087;28;20052;-54
2023/10/24 10:31:50;;;;;;;0.22;0.22;;;;;;;12.63;75.91;100125.31;15692078;28;20462;-50
2023/10/24 10:39:23;;;;;;;0.63;0.55;;;;;;;13.04;74.77;100123.41;15715262;28;20124;-52
2023/10/24 10:47:02;;;;;;;0.60;0.60;;;;;;;13.21;73.83;100136.94;15706762;28;20494;-51
2023/10/24 10:54:58;;;;;;;0.20;0.20;;;;;;;13.66;72.80;100128.00;15671917;28;20498;-49
2023/10/24 11:02:49;;;;;;;0.45;0.32;;;;;;;13.93;72.37;100117.38;15694258;28;20044;-49
2023/10/24 11:10:23;;;;;;;1.05;0.80;;;;;;;14.01;72.85;100114.25;15717326;28;20041;-52
2023/10/24 11:17:57;;;;;;;;;;;;;;;14.11;72.35;100097.38;15705645;28;20159;-48
2023/10/24 11:25:30;;;;;;;0.75;0.75;;;;;;;14.18;71.96;100082.66;15697048;28;20496;-53
2023/10/24 11:33:08;;;;;;;0.75;0.75;;;;;;;14.10;72.42;100069.59;15686991;28;20115;-47
2023/10/24 11:40:46;;;;;;;0.50;0.50;;;;;;;13.83;73.43;100082.97;15691793;28;20041;-48
2023/10/24 11:48:20;;;;;;;1.17;1.05;;;;;;;14.01;73.17;100100.75;15711503;28;20067;-52
2023/10/24 11:55:54;;;;;;;1.20;1.00;;;;;;;14.37;72.50;100103.94;15711664;28;20040;-52
2023/10/24 12:03:45;;;;;;;0.32;0.32;;;;;;;13.98;73.36;100115.56;15719034;28;20064;-54
2023/10/24 12:11:23;;;;;;;7.90;2.28;;;;;;;13.96;74.01;100101.50;15720161;28;20051;-49
2023/10/24 12:18:59;;;;;;;1.10;0.47;;;;;;;14.15;72.99;100090.44;15709927;28;20055;-48
2023/10/24 12:26:35;;;;;;;0.10;0.10;;;;;;;14.43;72.68;100075.94;15713010;28;20140;-47
2023/10/24 12:34:12;;;;;;;0.47;0.43;;;;;;;14.24;73.25;100033.06;15699610;28;20105;-50
2023/10/24 12:41:47;;;;;;;1.98;1.17;;;;;;;14.42;73.60;100055.41;15684681;28;20041;-50
2023/10/24 12:49:21;;;;;;;0.10;0.10;;;;;;;14.82;72.56;100059.63;15718225;28;20112;-50
2023/10/24 12:56:54;;;;;;;0.28;0.28;;;;;;;14.52;73.13;100056.38;15681578;28;20060;-53
2023/10/24 13:04:29;;;;;;;0.60;0.55;;;;;;;14.98;72.00;100053.31;15694971;28;20041;-50
2023/10/24 13:12:03;;;;;;;1.15;0.32;;;;;;;14.68;73.32;100043.00;15709831;28;20040;-51
2023/10/24 13:19:38;;;;;;;0.45;0.45;;;;;;;15.11;72.04;100036.69;15716335;28;20079;-49
2023/10/24 13:27:12;;;;;;;0.20;0.20;;;;;;;15.23;71.49;100029.22;15722623;28;20189;-46
2023/10/24 13:34:46;;;;;;;0.50;0.50;;;;;;;15.04;72.79;100023.38;15694204;28;20052;-53
2023/10/24 13:42:19;;;;;;;0.10;0.10;;;;;;;15.20;71.93;100009.97;15685861;28;20132;-49
2023/10/24 13:49:54;;;;;;;0.88;0.68;;;;;;;15.21;73.20;99996.22;15715027;28;20045;-51
2023/10/24 13:57:30;;;;;;;0.85;0.30;;;;;;;15.23;73.59;99993.25;15695857;28;20127;-52
2023/10/24 14:05:06;;;;;;;1.40;1.02;;;;;;;15.23;73.78;99988.66;15664925;28;20140;-49
2023/10/24 14:12:39;;;;;;;0.35;0.35;;;;;;;15.22;73.84;99983.50;15712200;28;20144;-47
2023/10/24 14:20:14;;;;;;;0.20;0.20;;;;;;;15.04;74.45;99963.09;15705056;28;20041;-54
2023/10/24 14:27:48;;;;;;;0.00;0.00;;;;;;;14.97;75.07;99960.63;15692988;28;20036;-49
2023/10/24 14:35:23;;;;;;;0.22;0.22;;;;;;;14.90;75.98;99961.91;15708914;28;20047;-50
2023/10/24 14:42:56;;;;;;;0.10;0.10;;;;;;;14.90;75.32;99951.09;15700052;28;20072;-48
2023/10/24 14:50:31;;;;;;;0.00;0.00;;;;;;;14.86;75.83;99972.41;15684760;28;20405;-49
2023/10/24 14:58:05;;;;;;;0.45;0.45;;;;;;;14.77;76.30;99979.34;15714310;28;20506;-48
2023/10/24 15:05:40;;;;;;;0.63;0.63;;;;;;;14.83;76.44;99983.75;15703843;28;20415;-50
2023/10/24 15:13:13;;;;;;;0.50;0.50;;;;;;;14.77;76.17;99985.56;15702177;28;20049;-51
2023/10/24 15:20:48;;;;;;;2.75;1.38;;;;;;;14.65;76.39;99992.22;15697427;28;20039;-49
2023/10/24 15:28:21;;;;;;;3.88;2.30;;;;;;;14.74;75.88;99980.69;15686108;28;20085;-51
2023/10/24 15:36:01;;;;;;;0.32;0.32;;;;;;;14.72;75.91;99980.13;15693400;28;20060;-53
2023/10/24 15:43:35;;;;;;;17.80;1.33;;;;;;;14.64;75.85;99977.91;15687961;28;20041;-52
2023/10/24 15:51:10;;;;;;;0.52;0.52;;;;;;;14.58;76.01;99975.41;15697437;28;20072;-50
2023/10/24 15:58:44;;;;;;;1.58;0.75;;;;;;;14.24;77.67;99981.78;15712391;28;20057;-48
2023/10/24 16:06:19;;;;;;;0.80;0.57;;;;;;;14.42;77.11;99993.31;15688341;28;20485;-50
2023/10/24 16:13:56;;;;;;;3.63;0.75;;;;;;;14.22;78.17;99978.53;15702282;28;20041;-47
2023/10/24 16:21:34;;;;;;;1.05;0.95;;;;;;;14.03;78.98;99979.88;15704300;28;20048;-51
2023/10/24 16:29:08;;;;;;;0.40;0.40;;;;;;;14.32;77.80;99993.19;15705897;28;20143;-48
2023/10/24 16:36:42;;;;;;;0.77;0.77;;;;;;;14.28;77.92;99992.88;15705189;22;20485;-47
2023/10/24 16:44:16;;;;;;;1.55;1.23;;;;;;;13.82;80.19;99984.22;15732811;28;20044;-47
2023/10/24 16:51:51;;;;;;;;;;;;;;;13.93;78.87;99975.19;15701185;28;20045;-46
2023/10/24 16:59:27;;;;;;;0.73;0.73;;;;;;;14.20;78.34;99966.34;15681768;28;19956;-45
2023/10/24 17:07:02;;;;;;;0.93;0.63;;;;;;;13.81;79.60;99935.94;15683763;28;20404;-47
2023/10/24 17:14:35;;;;;;;1.08;0.98;;;;;;;13.85;80.47;99932.47;15685040;28;20110;-47
2023/10/24 17:22:09;;;;;;;;;;;;;;;13.20;82.86;99912.44;15686188;28;20099;-45
2023/10/24 17:29:43;;;;;;;0.38;0.32;;;;;;;12.77;85.72;99897.78;15700359;28;19974;-45
2023/10/24 17:37:17;;;;;;;0.75;0.47;;;;;;;13.42;82.29;99899.03;15721258;28;20570;-44
2023/10/24 17:44:50;;;;;;;2.38;1.60;;;;;;;12.88;85.10;99892.56;15717986;28;20049;-45
2023/10/24 17:52:25;;;;;;;0.52;0.52;;;;;;;13.55;81.71;99884.38;15713489;28;20071;-48
2023/10/24 17:59:58;;;;;;;0.40;0.40;;;;;;;13.20;83.21;99860.44;15711727;28;20063;-46
2023/10/24 18:07:33;;;;;;;;;;;;;;;12.48;86.81;99853.16;15697723;28;20120;-48
2023/10/24 18:15:11;;;;;;;2.35;1.35;;;;;;;12.77;85.66;99849.31;15695404;28;19975;-47
2023/10/24 18:22:48;;;;;;;0.25;0.25;;;;;;;13.49;80.66;99863.81;15690359;28;20502;-46
2023/10/24 18:30:21;;;;;;;0.68;0.68;;;;;;;13.69;80.45;99860.53;15688754;28;20033;-46
2023/10/24 18:37:57;;;;;;;0.00;0.00;;;;;;;14.05;78.98;99864.44;15685176;28;20447;-45
2023/10/24 18:45:31;;;;;;;1.23;1.13;;;;;;;13.95;79.02;99872.44;15717755;28;20049;-49
2023/10/24 18:53:08;;;;;;;0.43;0.38;;;;;;;14.08;79.06;99869.31;15694235;28;20044;-47
2023/10/24 19:00:42;;;;;;;1.27;0.43;;;;;;;14.19;78.49;99871.06;15670467;28;20045;-49
2023/10/24 19:08:17;;;;;;;0.70;0.70;;;;;;;13.88;79.35;99872.63;15669346;28;20043;-47
2023/10/24 19:15:51;;;;;;;1.75;1.10;;;;;;;14.15;78.55;99874.50;15675460;28;20051;-46
2023/10/24 19:23:26;;;;;;;0.70;0.57;;;;;;;14.28;78.15;99872.22;15672797;28;20049;-44
2023/10/24 19:31:00;;;;;;;0.38;0.38;;;;;;;14.20;78.18;99864.56;15682958;28;20432;-45
2023/10/24 19:38:37;;;;;;;1.85;0.98;;;;;;;14.18;78.05;99860.53;15676160;28;20483;-46
2023/10/24 19:46:11;;;;;;;2.25;1.63;;;;;;;14.25;77.86;99853.00;15673680;28;20508;-50
2023/10/24 19:53:46;;;;;;;0.63;0.63;;;;;;;14.20;77.68;99858.38;15671638;28;20124;-44
2023/10/24 20:01:20;;;;;;;1.63;1.52;;;;;;;14.15;77.88;99858.31;15661819;28;20037;-45
2023/10/24 20:08:58;;;;;;;0.30;0.20;;;;;;;14.21;77.80;99858.09;15672663;28;20052;-49
2023/10/24 20:16:36;;;;;;;0.28;0.28;;;;;;;14.24;77.60;99863.00;15685703;28;20044;-47
2023/10/24 20:24:13;;;;;;;0.40;0.40;;;;;;;13.94;78.38;99854.59;15682818;28;20120;-47
2023/10/24 20:31:46;;;;;;;0.57;0.57;;;;;;;13.75;79.92;99846.03;15664359;28;20052;-45
2023/10/24 20:39:21;;;;;;;;;;;;;;;13.63;80.64;99831.88;15663702;28;20472;-46
2023/10/24 20:46:56;;;;;;;0.38;0.38;;;;;;;14.00;79.05;99824.72;15683318;28;19925;-46
2023/10/24 20:54:30;;;;;;;0.10;0.10;;;;;;;14.02;78.73;99827.16;15663738;28;20041;-49
2023/10/24 21:02:06;;;;;;;0.20;0.20;;;;;;;14.00;78.48;99818.53;15680790;28;20049;-45
2023/10/24 21:09:41;;;;;;;0.15;0.15;;;;;;;13.78;79.13;99822.06;15663037;28;20513;-49
2023/10/24 21:17:14;;;;;;;1.27;0.57;;;;;;;13.55;80.21;99827.75;15681332;28;20041;-46
2023/10/24 21:24:49;;;;;;;0.20;0.20;;;;;;;13.55;81.18;99829.63;15679035;28;20045;-45
2023/10/24 21:32:22;;;;;;;1.00;0.65;;;;;;;12.89;83.27;99824.16;15678233;28;20149;-48
2023/10/24 21:39:56;;;;;;;;;;;;;;;13.23;82.75;99824.94;15678131;28;20131;-48
2023/10/24 21:47:29;;;;;;;0.30;0.30;;;;;;;13.73;81.10;99802.31;15686112;28;19920;-49
2023/10/24 21:55:06;;;;;;;1.58;0.93;;;;;;;13.62;80.93;99812.19;15676767;28;20249;-49
2023/10/24 22:02:40;;;;;;;1.23;0.73;;;;;;;13.69;80.03;99810.09;15680890;28;20045;-45
2023/10/24 22:10:15;;;;;;;1.10;0.75;;;;;;;13.40;81.78;99814.09;15684525;28;20383;-47
2023/10/24 22:18:07;;;;;;;5.93;0.93;;;;;;;13.81;80.43;99807.28;15665074;28;20402;-48
2023/10/24 22:25:48;;;;;;;0.52;0.45;;;;;;;13.74;80.35;99793.97;15674607;28;20540;-46
2023/10/24 22:33:22;;;;;;;0.35;0.35;;;;;;;13.40;80.89;99797.91;15657360;28;20043;-46
2023/10/24 22:40:58;;;;;;;0.22;0.22;;;;;;;13.42;81.01;99801.16;15678473;28;20320;-48
2023/10/24 22:48:31;;;;;;;0.52;0.40;;;;;;;13.31;81.17;99808.31;15688509;28;20568;-47
2023/10/24 22:56:06;;;;;;;1.02;0.93;;;;;;;13.41;80.62;99805.75;15657785;28;20044;-45
2023/10/24 23:03:39;;;;;;;1.42;1.38;;;;;;;13.60;79.46;99806.22;15666149;28;20045;-50
2023/10/24 23:11:13;;;;;;;;;;;;;;;13.43;79.94;99811.72;15681926;28;20047;-45
2023/10/24 23:18:47;;;;;;;0.28;0.28;;;;;;;13.25;81.17;99812.84;15676514;28;19932;-47
2023/10/24 23:26:26;;;;;;;0.40;0.40;;;;;;;12.97;82.76;99810.28;15689319;28;20421;-46
2023/10/24 23:34:00;;;;;;;3.45;1.17;;;;;;;12.86;83.84;99803.09;15672332;28;20132;-46
2023/10/24 23:41:35;;;;;;;2.60;0.40;;;;;;;12.67;83.70;99800.69;15656966;28;20044;-49
2023/10/24 23:49:09;;;;;;;1.77;1.42;;;;;;;12.51;85.05;99802.34;15671285;28;20041;-46
2023/10/24 23:56:45;;;;;;;3.40;2.08;;;;;;;12.38;84.71;99800.00;15654589;28;20406;-49
